Time;durP1;ratioP1;P1;durP2;ratioP2;P2;SDS_P1;SDS_P2;PMS_P1;PMS_P2;Temp;Humidity;BMP_temperature;BMP_pressure;BME280_temperature;BME280_humidity;BME280_pressure;Samples;Min_cycle;Max_cycle;Signal;HPM_P1;HPM_P2
2024/02/17 00:01:15;;;;;;;13.70;6.40;;;8.50;99.90;;;;;;4856044;29;20535;-81
2024/02/17 00:03:44;;;;;;;15.63;6.28;;;8.60;99.90;;;;;;4905655;29;20488;-81
2024/02/17 00:06:12;;;;;;;13.93;7.65;;;8.60;99.90;;;;;;4873793;29;20092;-80
2024/02/17 00:08:42;;;;;;;7.80;4.22;;;8.70;99.90;;;;;;4871909;29;20053;-81
2024/02/17 00:11:09;;;;;;;17.80;7.63;;;8.70;99.90;;;;;;4886685;29;20048;-81
2024/02/17 00:13:43;;;;;;;15.48;7.85;;;8.70;99.90;;;;;;4882786;29;20049;-81
2024/02/17 00:16:11;;;;;;;17.02;6.93;;;8.80;99.90;;;;;;4876647;29;20101;-81
2024/02/17 00:18:39;;;;;;;15.98;6.65;;;8.80;99.90;;;;;;4896960;29;20059;-83
2024/02/17 00:21:08;;;;;;;13.55;7.63;;;8.90;99.90;;;;;;4863306;29;20120;-83
2024/02/17 00:23:35;;;;;;;5.07;3.78;;;8.80;99.90;;;;;;4872263;29;20041;-83
2024/02/17 00:26:03;;;;;;;7.85;4.63;;;8.90;99.90;;;;;;4890772;29;20061;-83
2024/02/17 00:28:36;;;;;;;14.52;7.45;;;8.90;99.90;;;;;;4877925;29;20049;-83
2024/02/17 00:31:04;;;;;;;13.23;7.05;;;8.90;99.90;;;;;;4890855;29;20116;-82
2024/02/17 00:33:52;;;;;;;12.18;6.53;;;9.10;99.90;;;;;;4873441;29;20052;-83
2024/02/17 00:36:19;;;;;;;21.75;8.35;;;9.00;99.90;;;;;;4898300;29;20120;-82
2024/02/17 00:38:46;;;;;;;7.25;4.75;;;9.10;99.90;;;;;;4889812;29;20040;-83
2024/02/17 00:41:13;;;;;;;11.70;6.63;;;9.10;99.90;;;;;;4856257;29;20061;-83
2024/02/17 00:43:40;;;;;;;18.42;9.00;;;9.10;99.90;;;;;;4861942;29;20029;-81
2024/02/17 00:46:08;;;;;;;8.48;4.28;;;9.10;99.90;;;;;;4913240;29;20043;-82
2024/02/17 00:48:35;;;;;;;17.98;7.28;;;9.20;99.90;;;;;;4881897;29;20032;-82
2024/02/17 00:51:03;;;;;;;11.88;6.05;;;9.20;99.90;;;;;;4891808;29;20059;-82
2024/02/17 00:53:38;;;;;;;9.77;5.45;;;9.30;99.90;;;;;;4872841;29;20055;-81
2024/02/17 00:56:05;;;;;;;17.67;6.82;;;9.20;99.90;;;;;;4897303;29;20059;-83
2024/02/17 00:58:33;;;;;;;9.68;6.50;;;9.30;99.90;;;;;;4887670;29;20047;-82
2024/02/17 01:01:01;;;;;;;7.50;4.30;;;9.30;99.90;;;;;;4895300;29;20115;-83
2024/02/17 01:03:29;;;;;;;12.98;7.82;;;9.30;99.90;;;;;;4873500;29;20056;-81
2024/02/17 01:05:57;;;;;;;18.33;8.55;;;9.30;99.90;;;;;;4875862;29;20073;-81
2024/02/17 01:08:24;;;;;;;16.48;7.57;;;9.40;99.90;;;;;;4868323;29;20044;-82
2024/02/17 01:10:51;;;;;;;14.27;8.68;;;9.40;99.90;;;;;;4852018;29;20040;-81
2024/02/17 01:13:18;;;;;;;12.07;7.65;;;9.40;99.90;;;;;;4875889;29;20084;-82
2024/02/17 01:15:47;;;;;;;16.02;8.73;;;9.40;99.90;;;;;;4882960;29;20037;-82
2024/02/17 01:18:14;;;;;;;12.15;8.10;;;9.50;99.90;;;;;;4889763;29;20139;-83
2024/02/17 01:20:41;;;;;;;10.38;6.05;;;9.50;99.90;;;;;;4868822;29;20075;-83
2024/02/17 01:23:08;;;;;;;7.35;5.32;;;9.40;99.90;;;;;;4860633;29;20063;-82
2024/02/17 01:25:36;;;;;;;12.18;7.05;;;9.40;99.90;;;;;;4874151;29;20055;-82
2024/02/17 01:28:17;;;;;;;8.77;5.75;;;9.40;99.90;;;;;;4884023;29;20059;-83
2024/02/17 01:30:44;;;;;;;11.95;8.23;;;9.50;99.90;;;;;;4902031;29;20044;-82
2024/02/17 01:33:12;;;;;;;16.45;7.88;;;9.50;99.90;;;;;;4887535;29;20084;-82
2024/02/17 01:35:41;;;;;;;14.18;5.95;;;9.50;99.90;;;;;;4860745;29;20049;-82
2024/02/17 01:38:09;;;;;;;16.45;8.57;;;9.50;99.90;;;;;;4866933;29;20048;-81
2024/02/17 01:40:37;;;;;;;15.85;8.30;;;9.50;99.90;;;;;;4870056;29;20040;-83
2024/02/17 01:43:08;;;;;;;16.30;7.45;;;9.50;99.90;;;;;;4901990;29;20056;-83
2024/02/17 01:45:35;;;;;;;11.48;7.13;;;9.50;99.90;;;;;;4884987;29;20059;-81
2024/02/17 01:48:03;;;;;;;13.65;8.27;;;9.50;99.90;;;;;;4916512;29;20020;-83
2024/02/17 01:50:31;;;;;;;13.73;7.28;;;9.50;99.90;;;;;;4903733;29;20049;-81
2024/02/17 01:53:00;;;;;;;13.30;7.43;;;9.50;99.90;;;;;;4866046;29;20834;-81
2024/02/17 01:55:29;;;;;;;9.85;5.93;;;9.50;99.90;;;;;;4869265;29;20044;-82
2024/02/17 01:58:03;;;;;;;11.27;6.70;;;9.40;99.90;;;;;;4869922;29;20100;-82
2024/02/17 02:00:33;;;;;;;10.38;4.97;;;9.40;99.90;;;;;;4890994;29;20054;-83
2024/02/17 02:03:04;;;;;;;10.15;6.68;;;9.50;99.90;;;;;;4870570;29;20041;-82
2024/02/17 02:05:32;;;;;;;10.82;7.07;;;9.40;99.90;;;;;;4899425;29;20040;-83
2024/02/17 02:08:00;;;;;;;10.85;5.43;;;9.30;99.90;;;;;;4916081;29;20049;-82
2024/02/17 02:10:27;;;;;;;16.98;8.38;;;9.30;99.90;;;;;;4884091;29;20048;-82
2024/02/17 02:12:55;;;;;;;17.30;8.57;;;9.30;99.90;;;;;;4881851;29;20045;-82
2024/02/17 02:15:25;;;;;;;19.73;9.18;;;9.20;99.90;;;;;;4859759;29;20728;-82
2024/02/17 02:17:58;;;;;;;14.13;7.65;;;9.10;99.90;;;;;;4886262;29;20091;-82
2024/02/17 02:20:26;;;;;;;17.63;7.18;;;9.00;99.90;;;;;;4871077;29;20503;-81
2024/02/17 02:22:54;;;;;;;13.18;7.25;;;9.00;99.90;;;;;;4884478;29;20132;-81
2024/02/17 02:25:24;;;;;;;11.77;6.75;;;8.90;99.90;;;;;;4880742;29;20037;-81
2024/02/17 02:27:53;;;;;;;9.38;5.35;;;8.80;99.90;;;;;;4893438;29;20105;-81
2024/02/17 02:30:22;;;;;;;10.07;5.07;;;8.70;99.90;;;;;;4873240;29;20420;-82
2024/02/17 02:32:49;;;;;;;6.05;3.97;;;8.60;99.90;;;;;;4884707;29;20068;-81
2024/02/17 02:35:18;;;;;;;15.15;5.60;;;8.60;99.90;;;;;;4857509;29;20137;-81
2024/02/17 02:37:45;;;;;;;8.45;4.68;;;8.50;99.90;;;;;;4884845;29;20048;-82
2024/02/17 02:40:12;;;;;;;15.38;7.78;;;8.50;99.90;;;;;;4891734;29;20051;-82
2024/02/17 02:42:39;;;;;;;20.95;8.10;;;8.40;99.90;;;;;;4888023;29;20412;-82
2024/02/17 02:45:08;;;;;;;13.88;6.72;;;8.40;99.90;;;;;;4853605;29;20071;-83
2024/02/17 02:47:36;;;;;;;11.57;6.75;;;8.30;99.90;;;;;;4877354;29;20097;-83
2024/02/17 02:50:03;;;;;;;17.05;7.70;;;8.30;99.90;;;;;;4869773;29;20120;-82
2024/02/17 02:52:34;;;;;;;16.77;7.13;;;8.30;99.90;;;;;;4879427;29;20044;-83
2024/02/17 02:55:03;;;;;;;13.95;7.35;;;8.20;99.90;;;;;;4887951;29;20055;-82
2024/02/17 02:57:32;;;;;;;13.65;7.63;;;8.10;99.90;;;;;;4882675;29;20045;-83
2024/02/17 03:00:00;;;;;;;15.77;6.68;;;8.00;99.90;;;;;;4893570;29;20127;-83
2024/02/17 03:02:28;;;;;;;17.98;7.40;;;8.00;99.90;;;;;;4872806;29;20056;-83
2024/02/17 03:04:56;;;;;;;13.45;7.78;;;7.90;99.90;;;;;;4872360;29;20043;-83
2024/02/17 03:07:27;;;;;;;11.15;5.90;;;7.80;99.90;;;;;;4889959;29;20040;-82
2024/02/17 03:09:54;;;;;;;19.02;7.47;;;7.80;99.90;;;;;;4880553;29;20135;-81
2024/02/17 03:12:25;;;;;;;18.95;8.18;;;7.70;99.90;;;;;;4884951;29;20061;-80
2024/02/17 03:15:04;;;;;;;15.55;6.53;;;7.70;99.90;;;;;;4881709;29;20072;-82
2024/02/17 03:17:53;;;;;;;18.27;6.80;;;7.60;99.90;;;;;;4859462;29;20065;-82
2024/02/17 03:20:21;;;;;;;14.43;8.05;;;7.60;99.90;;;;;;4875598;29;20116;-82
2024/02/17 03:22:51;;;;;;;12.27;7.65;;;7.50;99.90;;;;;;4910886;29;20063;-82
2024/02/17 03:25:18;;;;;;;16.15;7.65;;;7.50;99.90;;;;;;4900667;29;20044;-83
2024/02/17 03:27:48;;;;;;;22.25;10.15;;;7.60;99.90;;;;;;4895176;29;20056;-82
2024/02/17 03:30:22;;;;;;;18.83;9.15;;;7.70;99.90;;;;;;4890977;29;20045;-82
2024/02/17 03:32:50;;;;;;;17.55;8.52;;;7.90;99.90;;;;;;4878472;29;20456;-82
2024/02/17 03:35:20;;;;;;;19.10;9.60;;;7.90;99.90;;;;;;4878134;29;20051;-82
2024/02/17 03:37:48;;;;;;;23.05;8.25;;;8.00;99.90;;;;;;4871569;29;20095;-82
2024/02/17 03:40:15;;;;;;;17.75;7.22;;;8.00;99.90;;;;;;4885514;29;20103;-82
2024/02/17 03:42:42;;;;;;;15.65;7.95;;;8.00;99.90;;;;;;4870754;29;20051;-82
2024/02/17 03:45:12;;;;;;;17.13;8.88;;;8.10;99.90;;;;;;4875052;29;20064;-81
2024/02/17 03:47:40;;;;;;;12.15;6.55;;;8.10;99.90;;;;;;4862479;29;20055;-82
2024/02/17 03:50:08;;;;;;;13.20;6.82;;;8.20;99.90;;;;;;4875594;29;20045;-82
2024/02/17 03:52:36;;;;;;;13.20;6.15;;;8.30;99.90;;;;;;4881442;29;20048;-82
2024/02/17 03:55:03;;;;;;;10.80;6.55;;;8.40;99.90;;;;;;4859231;29;20053;-81
2024/02/17 03:57:31;;;;;;;10.32;5.88;;;8.40;99.90;;;;;;4880647;29;20071;-81
2024/02/17 03:59:58;;;;;;;13.27;6.95;;;8.50;99.90;;;;;;4893380;29;20054;-82
2024/02/17 04:02:25;;;;;;;9.75;5.50;;;8.60;99.90;;;;;;4854299;29;20045;-82
2024/02/17 04:04:53;;;;;;;14.07;6.07;;;8.60;99.90;;;;;;4878336;29;20108;-82
2024/02/17 04:07:20;;;;;;;12.27;6.63;;;8.70;99.90;;;;;;4864322;29;20053;-82
2024/02/17 04:09:50;;;;;;;10.30;7.05;;;8.80;99.90;;;;;;4871158;29;20560;-82
2024/02/17 04:12:19;;;;;;;13.30;8.18;;;8.90;99.90;;;;;;4888704;29;20069;-80
2024/02/17 04:14:47;;;;;;;9.55;5.78;;;8.80;99.90;;;;;;4877455;29;20059;-82
2024/02/17 04:17:15;;;;;;;12.13;6.85;;;8.80;99.90;;;;;;4902950;29;20096;-82
2024/02/17 04:19:42;;;;;;;16.35;7.38;;;8.80;99.90;;;;;;4882494;29;20264;-83
2024/02/17 04:22:11;;;;;;;13.55;6.78;;;8.80;99.90;;;;;;4916879;29;20034;-82
2024/02/17 04:24:44;;;;;;;13.43;7.47;;;8.80;99.90;;;;;;4889656;29;20059;-82
2024/02/17 04:27:13;;;;;;;13.30;7.65;;;8.80;99.90;;;;;;4875350;29;20120;-82
2024/02/17 04:29:42;;;;;;;17.42;7.78;;;8.90;99.90;;;;;;4898308;29;20053;-82
2024/02/17 04:32:09;;;;;;;10.30;6.57;;;9.00;99.90;;;;;;4890253;29;20040;-82
2024/02/17 04:34:36;;;;;;;17.73;8.40;;;9.00;99.90;;;;;;4878964;29;20066;-82
2024/02/17 04:37:05;;;;;;;13.80;7.75;;;9.00;99.90;;;;;;4888057;29;20131;-82
2024/02/17 04:39:33;;;;;;;14.02;6.93;;;9.00;99.90;;;;;;4883300;29;20526;-82
2024/02/17 04:42:00;;;;;;;8.88;5.75;;;9.10;99.90;;;;;;4881384;29;20108;-82
2024/02/17 04:44:28;;;;;;;6.63;5.38;;;9.10;99.90;;;;;;4876034;29;20048;-81
2024/02/17 04:46:55;;;;;;;10.05;6.00;;;9.10;99.90;;;;;;4895187;29;20036;-83
2024/02/17 04:49:27;;;;;;;5.95;4.35;;;9.00;99.90;;;;;;4891269;29;20478;-83
2024/02/17 04:51:54;;;;;;;8.05;4.93;;;9.10;99.90;;;;;;4859519;29;20045;-83
2024/02/17 04:54:21;;;;;;;4.97;3.53;;;9.00;99.90;;;;;;4857858;29;20068;-83
2024/02/17 04:56:49;;;;;;;6.45;4.45;;;9.00;99.90;;;;;;4864848;29;20068;-83
2024/02/17 04:59:16;;;;;;;6.15;3.50;;;9.00;99.90;;;;;;4885265;29;20041;-82
2024/02/17 05:01:44;;;;;;;4.40;3.25;;;9.00;99.90;;;;;;4883953;29;20047;-83
2024/02/17 05:04:20;;;;;;;4.72;2.85;;;8.90;99.90;;;;;;4883770;29;20059;-82
2024/02/17 05:06:48;;;;;;;5.70;4.07;;;8.90;99.90;;;;;;4880730;29;20052;-81
2024/02/17 05:09:17;;;;;;;6.97;3.38;;;8.90;99.90;;;;;;4896920;29;20052;-83
2024/02/17 05:11:44;;;;;;;7.10;4.55;;;8.90;99.90;;;;;;4879934;29;20139;-81
2024/02/17 05:14:15;;;;;;;9.13;3.80;;;8.90;99.90;;;;;;4885315;29;20093;-81
2024/02/17 05:16:46;;;;;;;;;;;8.90;99.90;;;;;;4880062;29;20052;-81
2024/02/17 05:19:15;;;;;;;5.45;4.22;;;9.00;99.90;;;;;;4919818;29;19930;-81
2024/02/17 05:21:51;;;;;;;5.95;3.60;;;8.90;99.90;;;;;;4899530;29;20041;-81
2024/02/17 05:24:22;;;;;;;8.88;3.92;;;8.90;99.90;;;;;;4889798;29;20048;-81
2024/02/17 05:26:50;;;;;;;5.68;3.50;;;9.10;99.90;;;;;;4875319;29;20053;-82
2024/02/17 05:29:25;;;;;;;4.22;2.90;;;8.90;99.90;;;;;;4887393;29;20060;-81
2024/02/17 05:31:52;;;;;;;5.53;3.92;;;8.90;99.90;;;;;;4882591;29;20049;-82
2024/02/17 05:34:19;;;;;;;6.40;3.22;;;8.90;99.90;;;;;;4890041;29;20103;-81
2024/02/17 05:36:50;;;;;;;3.75;3.15;;;8.90;99.90;;;;;;4875910;29;20516;-83
2024/02/17 05:39:19;;;;;;;6.88;3.55;;;8.90;99.90;;;;;;4887958;29;20068;-83
2024/02/17 05:41:46;;;;;;;7.68;3.88;;;8.80;99.90;;;;;;4887760;29;20060;-81
2024/02/17 05:44:14;;;;;;;7.22;5.20;;;8.90;99.90;;;;;;4887414;29;20057;-82
2024/02/17 05:46:41;;;;;;;7.50;4.75;;;8.90;99.90;;;;;;4875729;29;20048;-83
2024/02/17 05:49:09;;;;;;;8.10;3.53;;;8.80;99.90;;;;;;4874939;29;20138;-82
2024/02/17 05:51:40;;;;;;;8.18;4.13;;;8.90;99.90;;;;;;4910598;29;20040;-82
2024/02/17 05:54:09;;;;;;;6.43;4.45;;;8.80;99.90;;;;;;4884531;29;20053;-82
2024/02/17 05:56:36;;;;;;;9.82;4.65;;;8.30;99.90;;;;;;4884630;29;20041;-82
2024/02/17 05:59:04;;;;;;;8.85;3.83;;;8.90;99.90;;;;;;4893167;29;20045;-82
2024/02/17 06:01:33;;;;;;;8.77;4.07;;;8.90;99.90;;;;;;4863084;29;20140;-82
2024/02/17 06:04:00;;;;;;;6.78;3.92;;;8.80;99.90;;;;;;4870205;29;20131;-81
2024/02/17 06:06:28;;;;;;;5.57;2.67;;;8.90;99.90;;;;;;4893377;29;20045;-82
2024/02/17 06:08:55;;;;;;;3.70;2.58;;;8.80;99.90;;;;;;4864159;29;20103;-83
2024/02/17 06:11:24;;;;;;;3.67;2.45;;;8.80;99.90;;;;;;4881606;29;20048;-80
2024/02/17 06:13:51;;;;;;;2.58;1.98;;;8.80;99.90;;;;;;4889280;29;20060;-81
2024/02/17 06:16:27;;;;;;;4.13;1.60;;;8.80;99.90;;;;;;4857278;29;20536;-81
2024/02/17 06:21:48;;;;;;;4.88;1.58;;;8.70;99.90;;;;;;4892151;29;20051;-81
2024/02/17 06:24:15;;;;;;;4.32;1.00;;;8.70;99.90;;;;;;4894106;29;20113;-82
2024/02/17 06:26:43;;;;;;;2.35;1.33;;;8.70;99.90;;;;;;4909263;29;20040;-81
2024/02/17 06:29:10;;;;;;;1.77;1.42;;;8.60;99.90;;;;;;4860397;29;20147;-81
2024/02/17 06:31:40;;;;;;;1.58;1.48;;;8.60;99.90;;;;;;4885185;29;20044;-82
2024/02/17 06:34:08;;;;;;;1.52;1.25;;;8.60;99.90;;;;;;4892634;29;20428;-82
2024/02/17 06:36:38;;;;;;;4.03;1.27;;;8.60;99.90;;;;;;4871903;29;20139;-83
2024/02/17 06:39:05;;;;;;;2.70;1.60;;;8.60;99.90;;;;;;4863178;29;20500;-83
2024/02/17 06:41:34;;;;;;;3.30;1.17;;;8.50;99.90;;;;;;4873694;29;20073;-81
2024/02/17 06:44:08;;;;;;;3.05;1.60;;;8.50;99.90;;;;;;4861632;29;20053;-83
2024/02/17 06:46:35;;;;;;;2.20;1.30;;;8.50;99.90;;;;;;4870758;29;20079;-83
2024/02/17 06:49:02;;;;;;;2.85;1.45;;;8.50;99.90;;;;;;4872396;29;20044;-82
2024/02/17 06:51:30;;;;;;;1.40;1.10;;;8.50;99.90;;;;;;4894354;29;20160;-83
2024/02/17 06:53:57;;;;;;;3.85;1.33;;;8.50;99.90;;;;;;4875347;29;20492;-82
2024/02/17 06:56:28;;;;;;;1.67;1.52;;;8.50;99.90;;;;;;4872236;29;20045;-81
2024/02/17 06:58:55;;;;;;;1.70;1.60;;;8.50;99.90;;;;;;4889793;29;20040;-81
2024/02/17 07:01:23;;;;;;;5.35;1.88;;;8.50;99.90;;;;;;4893550;29;20041;-82
2024/02/17 07:03:52;;;;;;;3.08;1.60;;;8.40;99.90;;;;;;4842421;29;20060;-79
2024/02/17 07:06:20;;;;;;;3.25;1.08;;;8.30;99.90;;;;;;4874301;29;20045;-80
2024/02/17 07:08:48;;;;;;;1.40;1.02;;;8.20;99.90;;;;;;4886583;29;20057;-80
2024/02/17 07:11:17;;;;;;;2.53;1.13;;;8.20;99.90;;;;;;4888168;29;20314;-79
2024/02/17 07:13:45;;;;;;;1.27;1.13;;;8.20;99.90;;;;;;4873251;29;20393;-81
2024/02/17 07:16:12;;;;;;;1.40;1.30;;;8.20;99.90;;;;;;4904133;29;20457;-81
2024/02/17 07:18:41;;;;;;;2.58;1.75;;;8.30;99.90;;;;;;4908980;29;20033;-81
2024/02/17 07:21:09;;;;;;;3.03;1.77;;;8.30;99.90;;;;;;4903818;29;20051;-81
2024/02/17 07:23:36;;;;;;;2.13;1.02;;;8.30;99.90;;;;;;4905282;29;20032;-80
2024/02/17 07:26:04;;;;;;;3.83;1.70;;;8.30;99.90;;;;;;4863652;29;20049;-81
2024/02/17 07:28:36;;;;;;;2.22;1.45;;;8.30;99.90;;;;;;4891681;29;20056;-80
2024/02/17 07:31:04;;;;;;;1.38;1.00;;;8.40;99.90;;;;;;4899800;29;20075;-81
2024/02/17 07:33:33;;;;;;;1.50;1.30;;;8.40;99.90;;;;;;4876442;29;20453;-80
2024/02/17 07:36:00;;;;;;;2.72;1.92;;;8.40;99.90;;;;;;4867628;29;20049;-81
2024/02/17 07:38:28;;;;;;;2.40;1.30;;;8.40;99.90;;;;;;4876306;29;20089;-79
2024/02/17 07:40:55;;;;;;;3.75;1.23;;;8.40;99.90;;;;;;4868651;29;20056;-80
2024/02/17 07:43:22;;;;;;;10.38;1.13;;;8.40;99.90;;;;;;4857433;29;20065;-81
2024/02/17 07:45:49;;;;;;;2.42;0.95;;;8.40;99.90;;;;;;4878032;29;20055;-81
2024/02/17 07:48:17;;;;;;;2.90;1.77;;;8.40;99.90;;;;;;4869252;29;20090;-81
2024/02/17 07:50:45;;;;;;;4.72;1.65;;;8.40;99.90;;;;;;4864056;29;20051;-81
2024/02/17 07:53:12;;;;;;;2.60;1.42;;;8.40;99.90;;;;;;4879465;29;20051;-80
2024/02/17 07:55:40;;;;;;;4.60;1.23;;;8.40;99.90;;;;;;4887727;29;20051;-81
2024/02/17 07:58:08;;;;;;;5.07;1.23;;;8.50;99.90;;;;;;4903126;29;20072;-81
2024/02/17 08:00:36;;;;;;;3.35;1.35;;;8.50;99.90;;;;;;4871798;29;20175;-80
2024/02/17 08:03:04;;;;;;;3.50;1.15;;;8.50;99.90;;;;;;4893910;29;20066;-80
2024/02/17 08:05:32;;;;;;;2.67;1.30;;;8.50;99.90;;;;;;4895763;29;20524;-81
2024/02/17 08:07:59;;;;;;;2.58;1.27;;;8.50;99.90;;;;;;4885885;29;20099;-81
2024/02/17 08:10:28;;;;;;;3.33;1.38;;;8.50;99.90;;;;;;4882813;29;20080;-81
2024/02/17 08:12:58;;;;;;;3.50;2.22;;;8.60;99.90;;;;;;4891094;29;20053;-81
2024/02/17 08:15:28;;;;;;;4.20;1.30;;;8.60;99.90;;;;;;4887796;29;20517;-81
2024/02/17 08:17:57;;;;;;;3.28;1.42;;;8.70;99.90;;;;;;4870426;29;20427;-81
2024/02/17 08:20:24;;;;;;;4.32;2.05;;;8.70;99.90;;;;;;4880812;29;20040;-81
2024/02/17 08:22:51;;;;;;;3.28;1.48;;;8.80;99.90;;;;;;4861866;29;20040;-81
2024/02/17 08:25:19;;;;;;;3.25;2.95;;;8.70;99.90;;;;;;4889412;29;20041;-81
2024/02/17 08:27:48;;;;;;;4.05;1.25;;;8.80;99.90;;;;;;4885916;29;20060;-82
2024/02/17 08:30:16;;;;;;;3.53;1.48;;;8.80;99.90;;;;;;4894809;29;20040;-81
2024/02/17 08:32:46;;;;;;;4.00;1.63;;;8.90;99.90;;;;;;4876061;29;20136;-82
2024/02/17 08:35:13;;;;;;;3.40;1.40;;;8.90;99.90;;;;;;4882874;29;20044;-81
2024/02/17 08:37:43;;;;;;;3.60;1.73;;;9.00;99.90;;;;;;4902447;29;20114;-80
2024/02/17 08:40:14;;;;;;;3.70;1.95;;;9.10;99.90;;;;;;4887895;29;20090;-79
2024/02/17 08:42:41;;;;;;;4.10;1.40;;;9.10;99.90;;;;;;4904928;29;20096;-81
2024/02/17 08:45:09;;;;;;;5.10;1.90;;;9.20;99.90;;;;;;4886885;29;20549;-79
2024/02/17 08:47:59;;;;;;;1.20;1.10;;;9.20;99.90;;;;;;4871372;29;20087;-80
2024/02/17 08:50:26;;;;;;;4.90;1.80;;;9.20;99.90;;;;;;4874179;29;20135;-80
2024/02/17 08:52:54;;;;;;;2.47;1.25;;;9.10;99.90;;;;;;4904056;29;20048;-80
2024/02/17 08:55:22;;;;;;;2.40;1.65;;;9.10;99.90;;;;;;4862472;29;20063;-80
2024/02/17 08:57:49;;;;;;;4.18;1.92;;;9.20;99.90;;;;;;4883197;29;20071;-81
2024/02/17 09:00:24;;;;;;;3.80;1.95;;;9.20;99.90;;;;;;4857980;29;20189;-80
2024/02/17 09:02:52;;;;;;;6.95;2.58;;;9.30;99.90;;;;;;4867584;29;20080;-80
2024/02/17 09:05:21;;;;;;;3.08;1.35;;;9.40;99.90;;;;;;4895432;29;20049;-81
2024/02/17 09:07:48;;;;;;;4.57;1.63;;;9.50;99.90;;;;;;4892286;29;20139;-81
2024/02/17 09:10:16;;;;;;;6.32;3.20;;;9.60;99.90;;;;;;4905086;29;20060;-80
2024/02/17 09:12:44;;;;;;;2.78;1.63;;;9.70;99.90;;;;;;4881934;29;20053;-81
2024/02/17 09:15:19;;;;;;;6.80;2.42;;;9.70;99.90;;;;;;4908408;29;20386;-81
2024/02/17 09:17:47;;;;;;;3.30;2.30;;;9.80;99.90;;;;;;4882885;29;20075;-80
2024/02/17 09:20:18;;;;;;;3.00;1.40;;;9.90;99.90;;;;;;4885687;29;20048;-81
2024/02/17 09:22:52;;;;;;;2.17;1.20;;;10.20;99.90;;;;;;4841429;29;20048;-81
2024/02/17 09:25:22;;;;;;;2.75;2.00;;;10.40;99.90;;;;;;4900286;29;20048;-81
2024/02/17 09:27:50;;;;;;;2.53;1.23;;;10.70;99.90;;;;;;4875070;29;20507;-81
2024/02/17 09:30:18;;;;;;;1.65;1.55;;;10.90;99.90;;;;;;4854159;29;20520;-81
2024/02/17 09:32:46;;;;;;;3.03;2.25;;;11.10;99.90;;;;;;4868854;29;20104;-81
2024/02/17 09:35:20;;;;;;;3.28;2.20;;;11.00;99.90;;;;;;4863728;29;20500;-80
2024/02/17 09:37:47;;;;;;;2.78;1.55;;;11.00;99.90;;;;;;4879908;29;20063;-81
2024/02/17 09:40:17;;;;;;;2.70;1.60;;;11.10;99.90;;;;;;4889447;29;20123;-81
2024/02/17 09:42:47;;;;;;;2.58;1.38;;;11.40;99.90;;;;;;4897312;29;20044;-75
2024/02/17 09:45:16;;;;;;;3.90;1.58;;;11.80;99.90;;;;;;4894488;29;20408;-75
2024/02/17 09:47:45;;;;;;;1.65;1.25;;;12.10;99.90;;;;;;4878565;29;20048;-76
2024/02/17 09:50:17;;;;;;;4.00;1.65;;;12.40;99.90;;;;;;4888573;29;20130;-76
2024/02/17 09:52:48;;;;;;;1.88;1.20;;;12.40;99.90;;;;;;4896793;29;20040;-75
2024/02/17 09:55:16;;;;;;;4.38;1.70;;;12.20;99.90;;;;;;4872475;29;20040;-76
2024/02/17 09:57:43;;;;;;;6.22;1.27;;;12.00;99.90;;;;;;4873200;29;20052;-75
2024/02/17 10:00:16;;;;;;;2.78;1.98;;;12.40;99.90;;;;;;4893633;29;20044;-76
2024/02/17 10:02:43;;;;;;;5.00;1.63;;;13.40;99.90;;;;;;4866848;29;20044;-75
2024/02/17 10:05:10;;;;;;;4.20;1.77;;;14.20;99.90;;;;;;4865829;29;20491;-76
2024/02/17 10:07:53;;;;;;;5.25;1.42;;;14.40;99.20;;;;;;4863712;29;20415;-76
2024/02/17 10:10:22;;;;;;;2.17;1.55;;;14.20;98.40;;;;;;4869086;29;20040;-77
2024/02/17 10:12:56;;;;;;;3.88;2.10;;;13.80;97.90;;;;;;4878745;29;20526;-76
2024/02/17 10:15:25;;;;;;;4.10;1.48;;;13.70;98.80;;;;;;4849762;29;20044;-76
2024/02/17 10:17:55;;;;;;;3.30;1.50;;;13.70;97.70;;;;;;4883004;29;20052;-76
2024/02/17 10:20:22;;;;;;;1.73;1.17;;;13.60;98.20;;;;;;4895837;29;20452;-76
2024/02/17 10:22:50;;;;;;;2.65;1.27;;;13.30;98.30;;;;;;4865760;29;20072;-75
2024/02/17 10:25:17;;;;;;;3.00;1.45;;;12.90;96.00;;;;;;4890494;29;20048;-76
2024/02/17 10:27:47;;;;;;;7.05;1.70;;;12.60;97.10;;;;;;4871434;29;20058;-76
2024/02/17 10:30:17;;;;;;;5.28;1.23;;;13.00;98.00;;;;;;4883801;29;20052;-75
2024/02/17 10:32:44;;;;;;;2.47;1.75;;;14.10;97.70;;;;;;4882315;29;20108;-76
2024/02/17 10:35:13;;;;;;;4.20;1.13;;;14.50;95.70;;;;;;4900253;29;20134;-75
2024/02/17 10:37:40;;;;;;;3.55;1.13;;;14.50;94.60;;;;;;4883888;29;20053;-75
2024/02/17 10:40:09;;;;;;;3.88;1.15;;;14.10;94.30;;;;;;4881201;29;20044;-76
2024/02/17 10:42:37;;;;;;;4.15;1.35;;;13.40;94.30;;;;;;4883823;29;20088;-76
2024/02/17 10:45:05;;;;;;;1.27;1.00;;;13.80;94.90;;;;;;4891138;29;20159;-75
2024/02/17 10:47:36;;;;;;;2.42;1.10;;;13.70;93.80;;;;;;4868999;29;20047;-75
2024/02/17 10:50:16;;;;;;;3.58;1.38;;;13.50;93.60;;;;;;4891531;29;20056;-75
2024/02/17 10:52:49;;;;;;;2.55;1.48;;;13.70;94.00;;;;;;4887979;29;20076;-75
2024/02/17 10:55:31;;;;;;;4.70;1.55;;;14.20;94.30;;;;;;4874765;29;20049;-75
2024/02/17 10:58:17;;;;;;;1.05;1.02;;;13.70;92.30;;;;;;4884484;29;20051;-74
2024/02/17 11:00:46;;;;;;;3.67;1.25;;;14.00;92.10;;;;;;4881063;29;20449;-74
2024/02/17 11:03:19;;;;;;;3.60;1.73;;;14.50;92.40;;;;;;4893697;29;20044;-75
2024/02/17 11:05:51;;;;;;;2.13;1.15;;;15.40;92.40;;;;;;4898544;29;20060;-75
2024/02/17 11:08:19;;;;;;;2.95;1.35;;;16.20;91.40;;;;;;4891114;29;20067;-75
2024/02/17 11:10:49;;;;;;;4.10;1.05;;;16.50;90.90;;;;;;4908634;29;20051;-75
2024/02/17 11:13:26;;;;;;;2.67;1.35;;;16.50;90.40;;;;;;4889113;29;20049;-75
2024/02/17 11:16:04;;;;;;;2.53;0.93;;;16.70;87.60;;;;;;4890496;29;20044;-75
2024/02/17 11:18:41;;;;;;;6.95;1.75;;;16.90;85.20;;;;;;4898077;29;20448;-75
2024/02/17 11:21:10;;;;;;;3.20;1.20;;;17.40;84.00;;;;;;4901635;29;20507;-74
2024/02/17 11:23:39;;;;;;;5.00;1.27;;;17.90;84.30;;;;;;4884497;29;20525;-75
2024/02/17 11:26:08;;;;;;;3.05;1.50;;;18.40;85.00;;;;;;4903313;29;20114;-76
2024/02/17 11:28:36;;;;;;;4.18;1.10;;;18.90;84.30;;;;;;4876559;29;20068;-75
2024/02/17 11:31:07;;;;;;;1.92;0.80;;;18.90;82.80;;;;;;4864198;29;20049;-75
2024/02/17 11:33:35;;;;;;;3.72;1.20;;;18.30;82.70;;;;;;4866234;29;20123;-75
2024/02/17 11:36:08;;;;;;;5.05;1.67;;;17.40;83.80;;;;;;4887661;29;20067;-73
2024/02/17 11:38:37;;;;;;;2.00;1.10;;;16.70;84.70;;;;;;4874991;29;20040;-75
2024/02/17 11:41:04;;;;;;;3.65;1.40;;;16.20;85.70;;;;;;4867983;29;20045;-75
2024/02/17 11:43:35;;;;;;;4.32;1.08;;;16.40;85.90;;;;;;4905782;29;20047;-76
2024/02/17 11:46:04;;;;;;;3.03;1.08;;;17.10;84.80;;;;;;4874074;29;20530;-76
2024/02/17 11:48:32;;;;;;;8.43;1.02;;;18.10;82.70;;;;;;4882526;29;20044;-76
2024/02/17 11:51:12;;;;;;;6.40;1.10;;;18.80;80.90;;;;;;4899267;29;20054;-76
2024/02/17 11:53:41;;;;;;;5.65;1.00;;;19.30;79.90;;;;;;4892398;29;20397;-76
2024/02/17 11:56:13;;;;;;;2.88;1.10;;;19.50;79.20;;;;;;4853083;29;20079;-75
2024/02/17 11:58:44;;;;;;;4.32;1.13;;;19.30;78.80;;;;;;4885286;29;20056;-76
2024/02/17 12:01:15;;;;;;;1.02;0.90;;;18.70;79.30;;;;;;4904554;29;20043;-76
2024/02/17 12:03:42;;;;;;;;;;;18.20;79.90;;;;;;4874774;29;20048;-76
2024/02/17 12:06:11;;;;;;;4.53;1.40;;;17.90;77.60;;;;;;4872499;29;19971;-76
2024/02/17 12:08:40;;;;;;;2.58;1.10;;;17.70;79.90;;;;;;4896798;29;20563;-76
2024/02/17 12:11:08;;;;;;;3.25;1.10;;;17.70;79.50;;;;;;4884683;29;20056;-76
2024/02/17 12:13:36;;;;;;;2.70;1.08;;;17.80;79.30;;;;;;4881616;29;20416;-76
2024/02/17 12:16:09;;;;;;;5.85;1.00;;;18.20;79.50;;;;;;4882495;29;20248;-76
2024/02/17 12:18:37;;;;;;;2.78;1.10;;;18.80;78.80;;;;;;4883064;29;20063;-76
2024/02/17 12:21:06;;;;;;;4.40;1.50;;;19.50;75.90;;;;;;4898939;29;20051;-76
2024/02/17 12:23:39;;;;;;;2.00;1.10;;;19.40;76.20;;;;;;4901933;29;20036;-76
2024/02/17 12:26:08;;;;;;;0.88;0.88;;;19.20;77.10;;;;;;4882675;29;20556;-76
2024/02/17 12:28:41;;;;;;;0.80;0.70;;;19.10;76.30;;;;;;4889974;29;20037;-76
2024/02/17 12:31:10;;;;;;;1.95;1.30;;;19.20;76.30;;;;;;4867455;29;20051;-76
2024/02/17 12:33:50;;;;;;;2.42;1.13;;;19.30;77.00;;;;;;4883616;29;20052;-76
2024/02/17 12:36:21;;;;;;;2.33;1.08;;;19.50;74.40;;;;;;4897081;29;20163;-76
2024/02/17 12:38:55;;;;;;;4.93;1.92;;;19.30;75.80;;;;;;4880092;29;20107;-75
2024/02/17 12:41:23;;;;;;;1.90;0.95;;;19.30;75.20;;;;;;4873957;29;20119;-76
2024/02/17 12:43:51;;;;;;;3.65;1.27;;;19.10;75.00;;;;;;4872129;29;20112;-76
2024/02/17 12:46:22;;;;;;;1.15;1.02;;;19.10;75.60;;;;;;4873693;29;20108;-75
2024/02/17 12:48:50;;;;;;;2.55;1.35;;;18.80;76.60;;;;;;4881663;29;20389;-75
2024/02/17 12:51:23;;;;;;;3.58;1.55;;;18.80;76.30;;;;;;4870234;29;20056;-76
2024/02/17 12:53:51;;;;;;;1.83;1.23;;;18.80;76.60;;;;;;4865977;29;20053;-76
2024/02/17 12:56:18;;;;;;;1.90;1.60;;;18.30;77.10;;;;;;4899358;29;20526;-84
2024/02/17 12:58:48;;;;;;;2.80;1.13;;;17.90;78.40;;;;;;4865133;29;20052;-83
2024/02/17 13:01:18;;;;;;;2.22;1.30;;;17.40;78.90;;;;;;4859044;29;20091;-83
2024/02/17 13:03:49;;;;;;;4.03;1.25;;;17.00;79.80;;;;;;4868851;29;20052;-83